createdAt,value
2023-02-14T00:00:31.991Z,99.99
2023-02-14T00:01:32.004Z,99.99
2023-02-14T00:02:31.996Z,99.99
2023-02-14T00:03:31.933Z,99.99
2023-02-14T00:04:32.899Z,99.99
2023-02-14T00:05:31.921Z,99.99
2023-02-14T00:06:32.228Z,99.99
2023-02-14T00:07:31.889Z,99.99
2023-02-14T00:08:31.949Z,99.99
2023-02-14T00:09:31.883Z,99.99
2023-02-14T00:10:31.900Z,99.99
2023-02-14T00:11:31.879Z,99.99
2023-02-14T00:12:31.849Z,99.99
2023-02-14T00:13:32.140Z,99.99
2023-02-14T00:14:31.868Z,99.99
2023-02-14T00:15:31.816Z,99.99
2023-02-14T00:16:31.871Z,99.99
2023-02-14T00:17:31.789Z,99.99
2023-02-14T00:18:31.803Z,99.99
2023-02-14T00:19:31.863Z,99.99
2023-02-14T00:20:32.089Z,99.99
2023-02-14T00:21:31.765Z,99.99
2023-02-14T00:22:31.769Z,99.99
2023-02-14T00:23:31.737Z,99.99
2023-02-14T00:24:31.773Z,99.99
2023-02-14T00:25:31.710Z,99.99
2023-02-14T00:26:31.792Z,99.99
2023-02-14T00:27:31.982Z,99.99
2023-02-14T00:28:31.700Z,99.99
2023-02-14T00:29:31.667Z,99.99
2023-02-14T00:30:31.826Z,99.99
2023-02-14T00:31:31.772Z,99.99
2023-02-14T00:32:31.685Z,99.99
2023-02-14T00:33:31.624Z,99.99
2023-02-14T00:34:31.906Z,99.99
2023-02-14T00:35:31.616Z,99.99
2023-02-14T00:36:31.596Z,99.99
2023-02-14T00:37:31.590Z,99.99
2023-02-14T00:38:31.608Z,99.99
2023-02-14T00:39:31.590Z,99.99
2023-02-14T00:40:31.547Z,99.99
2023-02-14T00:41:31.836Z,99.99
2023-02-14T00:42:31.546Z,99.99
2023-02-14T00:43:31.562Z,99.99
2023-02-14T00:44:31.547Z,99.99
2023-02-14T00:45:31.537Z,99.99
2023-02-14T00:46:31.503Z,99.99
2023-02-14T00:47:31.485Z,99.99
2023-02-14T00:48:31.765Z,99.99
2023-02-14T00:49:31.512Z,99.99
2023-02-14T00:50:31.487Z,99.99
2023-02-14T00:51:31.446Z,99.99
2023-02-14T00:52:31.513Z,99.99
2023-02-14T00:53:31.428Z,99.99
2023-02-14T00:54:31.424Z,99.99
2023-02-14T00:55:31.713Z,99.99
2023-02-14T00:56:31.465Z,99.99
2023-02-14T00:57:31.380Z,99.99
2023-02-14T00:58:31.379Z,99.99
2023-02-14T00:59:31.384Z,99.99
2023-02-14T01:00:31.394Z,99.99
2023-02-14T01:01:31.354Z,99.99
2023-02-14T01:02:31.741Z,99.99
2023-02-14T01:03:31.329Z,99.99
2023-02-14T01:04:31.324Z,99.99
2023-02-14T01:05:31.292Z,99.99
2023-02-14T01:06:31.304Z,99.99
2023-02-14T01:07:31.300Z,99.99
2023-02-14T01:08:31.314Z,99.99
2023-02-14T01:09:31.543Z,99.99
2023-02-14T01:10:31.256Z,99.99
2023-02-14T01:11:31.250Z,99.99
2023-02-14T01:12:31.228Z,99.99
2023-02-14T01:13:31.220Z,99.99
2023-02-14T01:14:31.254Z,99.99
2023-02-14T01:15:31.215Z,99.99
2023-02-14T01:16:31.512Z,99.99
2023-02-14T01:17:31.182Z,99.99
2023-02-14T01:18:31.168Z,99.99
2023-02-14T01:19:31.162Z,99.99
2023-02-14T01:20:31.184Z,99.99
2023-02-14T01:21:31.147Z,99.99
2023-02-14T01:22:31.142Z,99.99
2023-02-14T01:23:31.422Z,99.99
2023-02-14T01:24:31.161Z,99.99
2023-02-14T01:25:31.103Z,99.99
2023-02-14T01:26:31.130Z,99.99
2023-02-14T01:27:31.075Z,99.99
2023-02-14T01:28:31.077Z,99.99
2023-02-14T01:29:31.087Z,99.99
2023-02-14T01:30:31.467Z,99.99
2023-02-14T01:31:31.367Z,99.99
2023-02-14T01:32:31.070Z,99.99
2023-02-14T01:33:31.021Z,99.99
2023-02-14T01:34:31.040Z,99.99
2023-02-14T01:35:30.995Z,99.99
2023-02-14T01:36:31.003Z,99.99
2023-02-14T01:37:31.265Z,99.99
2023-02-14T01:38:31.021Z,99.99
2023-02-14T01:39:30.961Z,99.99
2023-02-14T01:40:30.953Z,99.99
2023-02-14T01:41:30.959Z,99.99
2023-02-14T01:42:30.937Z,99.99
2023-02-14T01:43:30.919Z,99.99
2023-02-14T01:44:31.236Z,99.99
2023-02-14T01:45:30.954Z,99.99
2023-02-14T01:46:30.891Z,99.99
2023-02-14T01:47:30.894Z,99.99
2023-02-14T01:48:30.873Z,99.99
2023-02-14T01:49:30.866Z,99.99
2023-02-14T01:50:30.881Z,99.99
2023-02-14T01:51:31.151Z,99.99
2023-02-14T01:52:30.826Z,99.99
2023-02-14T01:53:30.819Z,99.99
2023-02-14T01:54:30.841Z,99.99
2023-02-14T01:55:30.812Z,99.99
2023-02-14T01:56:31.117Z,99.99
2023-02-14T01:57:30.788Z,99.99
2023-02-14T01:58:31.038Z,99.99
2023-02-14T01:59:30.768Z,99.99
2023-02-14T02:00:30.758Z,99.99
2023-02-14T02:01:30.829Z,99.99
2023-02-14T02:02:30.815Z,99.99
2023-02-14T02:03:30.716Z,99.99
2023-02-14T02:04:30.727Z,99.99
2023-02-14T02:05:30.972Z,99.99
2023-02-14T02:06:30.689Z,99.99
2023-02-14T02:07:30.685Z,99.99
2023-02-14T02:08:30.707Z,99.99
2023-02-14T02:09:30.661Z,99.99
2023-02-14T02:10:30.642Z,99.99
2023-02-14T02:11:30.643Z,99.99
2023-02-14T02:12:31.153Z,99.99
2023-02-14T02:13:30.617Z,99.99
2023-02-14T02:14:30.645Z,99.99
2023-02-14T02:15:30.593Z,99.99
2023-02-14T02:16:30.642Z,99.99
2023-02-14T02:17:30.587Z,99.99
2023-02-14T02:18:30.570Z,99.99
2023-02-14T02:19:30.845Z,99.99
2023-02-14T02:21:45.873Z,99.99
2023-02-14T02:22:46.838Z,99.99
2023-02-14T02:23:46.864Z,99.99
2023-02-14T02:24:46.816Z,99.99
2023-02-14T02:25:46.816Z,99.99
2023-02-14T02:26:46.829Z,99.99
2023-02-14T02:27:47.089Z,99.99
2023-02-14T02:28:46.789Z,99.99
2023-02-14T02:29:46.927Z,99.99
2023-02-14T02:30:46.915Z,99.99
2023-02-14T02:31:46.956Z,99.99
2023-02-14T02:32:46.770Z,99.99
2023-02-14T02:33:46.727Z,99.99
2023-02-14T02:34:46.727Z,99.99
2023-02-14T02:35:46.713Z,99.99
2023-02-14T02:36:46.705Z,99.99
2023-02-14T02:37:46.732Z,99.99
2023-02-14T02:38:46.715Z,99.99
2023-02-14T02:39:46.950Z,99.99
2023-02-14T02:40:46.749Z,99.99
2023-02-14T02:41:46.649Z,99.99
2023-02-14T02:42:46.655Z,99.99
2023-02-14T02:43:46.630Z,99.99
2023-02-14T02:44:46.662Z,99.99
2023-02-14T02:45:46.616Z,99.99
2023-02-14T02:46:46.890Z,99.99
2023-02-14T02:47:46.607Z,99.99
2023-02-14T02:48:46.593Z,99.99
2023-02-14T02:49:46.577Z,99.99
2023-02-14T02:50:46.580Z,99.99
2023-02-14T02:51:46.565Z,99.99
2023-02-14T02:52:46.528Z,99.99
2023-02-14T02:53:46.819Z,99.99
2023-02-14T02:54:46.512Z,99.99
2023-02-14T02:55:46.524Z,99.99
2023-02-14T02:56:47.118Z,99.99
2023-02-14T02:57:46.495Z,99.99
2023-02-14T02:58:46.491Z,99.99
2023-02-14T02:59:46.468Z,99.99
2023-02-14T03:00:46.734Z,99.99
2023-02-14T03:01:46.562Z,99.99
2023-02-14T03:02:46.457Z,99.99
2023-02-14T03:03:46.438Z,99.99
2023-02-14T03:04:46.486Z,99.99
2023-02-14T03:05:46.413Z,99.99
2023-02-14T03:06:46.405Z,99.99
2023-02-14T03:07:46.686Z,99.99
2023-02-14T03:08:46.409Z,99.99
2023-02-14T03:09:46.358Z,99.99
2023-02-14T03:10:46.355Z,99.99
2023-02-14T03:11:46.341Z,99.99
2023-02-14T03:12:46.347Z,99.99
2023-02-14T03:13:46.329Z,99.99
2023-02-14T03:14:46.644Z,99.99
2023-02-14T03:15:46.340Z,99.99
2023-02-14T03:16:46.288Z,99.99
2023-02-14T03:17:46.284Z,99.99
2023-02-14T03:18:46.278Z,99.99
2023-02-14T03:19:46.282Z,99.99
2023-02-14T03:20:46.285Z,99.99
2023-02-14T03:21:46.527Z,99.99
2023-02-14T03:22:46.236Z,99.99
2023-02-14T03:23:46.225Z,99.99
2023-02-14T03:24:46.226Z,99.99
2023-02-14T03:25:46.205Z,99.99
2023-02-14T03:26:46.229Z,99.99
2023-02-14T03:27:46.189Z,99.99
2023-02-14T03:28:46.452Z,99.99
2023-02-14T03:29:46.160Z,99.99
2023-02-14T03:30:46.274Z,99.99
2023-02-14T03:31:46.295Z,99.99
2023-02-14T03:32:46.167Z,99.99
2023-02-14T03:33:46.127Z,99.99
2023-02-14T03:34:46.124Z,99.99
2023-02-14T03:35:46.380Z,99.99
2023-02-14T03:36:46.112Z,99.99
2023-02-14T03:37:46.080Z,99.99
2023-02-14T03:38:46.118Z,99.99
2023-02-14T03:39:46.061Z,99.99
2023-02-14T03:40:46.042Z,99.99
2023-02-14T03:41:46.045Z,99.99
2023-02-14T03:42:46.310Z,99.99
2023-02-14T03:43:46.016Z,99.99
2023-02-14T03:44:46.055Z,99.99
2023-02-14T03:45:46.001Z,99.99
2023-02-14T03:46:46.067Z,99.99
2023-02-14T03:47:45.980Z,99.99
2023-02-14T03:48:45.968Z,99.99
2023-02-14T03:49:46.246Z,99.99
2023-02-14T03:50:45.977Z,99.99
2023-02-14T03:51:45.972Z,99.99
2023-02-14T03:52:45.923Z,99.99
2023-02-14T03:53:45.936Z,99.99
2023-02-14T03:54:45.905Z,99.99
2023-02-14T03:55:45.900Z,99.99
2023-02-14T03:56:46.215Z,99.99
2023-02-14T03:57:45.886Z,99.99
2023-02-14T03:58:45.863Z,99.99
2023-02-14T03:59:45.864Z,99.99
2023-02-14T04:00:45.880Z,99.99
2023-02-14T04:01:45.889Z,99.99
2023-02-14T04:02:46.148Z,99.99
2023-02-14T04:03:46.202Z,99.99
2023-02-14T04:04:45.799Z,99.99
2023-02-14T04:05:45.814Z,99.99
2023-02-14T04:06:45.790Z,99.99
2023-02-14T04:07:45.787Z,99.99
2023-02-14T04:08:45.792Z,99.99
2023-02-14T04:09:45.770Z,99.99
2023-02-14T04:10:46.056Z,99.99
2023-02-14T04:11:45.749Z,99.99
2023-02-14T04:12:45.730Z,99.99
2023-02-14T04:13:45.735Z,99.99
2023-02-14T04:14:45.730Z,99.99
2023-02-14T04:15:45.897Z,99.99
2023-02-14T04:16:45.686Z,99.99
2023-02-14T04:17:45.956Z,99.99
2023-02-14T04:18:45.660Z,99.99
2023-02-14T04:19:45.651Z,99.99
2023-02-14T04:20:45.672Z,99.99
2023-02-14T04:21:45.646Z,99.99
2023-02-14T04:22:45.621Z,99.99
2023-02-14T04:23:45.620Z,99.99
2023-02-14T04:24:45.919Z,99.99
2023-02-14T04:25:45.610Z,99.99
2023-02-14T04:26:45.614Z,99.99
2023-02-14T04:27:45.586Z,99.99
2023-02-14T04:28:45.571Z,99.99
2023-02-14T04:29:45.555Z,99.99
2023-02-14T04:30:45.548Z,99.99
2023-02-14T04:31:45.921Z,99.99
2023-02-14T04:32:45.553Z,99.99
2023-02-14T04:33:45.513Z,99.99
2023-02-14T04:34:45.505Z,99.99
2023-02-14T04:35:45.503Z,99.99
2023-02-14T04:36:45.522Z,99.99
2023-02-14T04:37:45.498Z,99.99
2023-02-14T04:38:45.808Z,99.99
2023-02-14T04:39:45.474Z,99.99
2023-02-14T04:40:45.449Z,99.99
2023-02-14T04:41:45.441Z,99.99
2023-02-14T04:42:45.442Z,99.99
2023-02-14T04:43:45.414Z,99.99
2023-02-14T04:44:45.444Z,99.99
2023-02-14T04:45:45.678Z,99.99
2023-02-14T04:46:45.447Z,99.99
2023-02-14T04:47:45.375Z,99.99
2023-02-14T04:48:45.388Z,99.99
2023-02-14T04:49:45.383Z,99.99
2023-02-14T04:50:45.393Z,99.99
2023-02-14T04:51:45.331Z,99.99
2023-02-14T04:52:45.620Z,99.99
2023-02-14T04:53:45.324Z,99.99
2023-02-14T04:54:45.295Z,99.99
2023-02-14T04:55:45.297Z,99.99
2023-02-14T04:56:45.309Z,99.99
2023-02-14T04:57:45.275Z,99.99
2023-02-14T04:58:45.265Z,99.99
2023-02-14T04:59:45.530Z,99.99
2023-02-14T05:00:45.300Z,99.99
2023-02-14T05:01:45.280Z,99.99
2023-02-14T05:02:45.254Z,99.99
2023-02-14T05:03:45.215Z,99.99
2023-02-14T05:04:45.221Z,99.99
2023-02-14T05:05:45.192Z,99.99
2023-02-14T05:06:45.471Z,99.99
2023-02-14T05:07:45.221Z,99.99
2023-02-14T05:08:45.222Z,99.99
2023-02-14T05:09:45.161Z,99.99
2023-02-14T05:10:45.136Z,99.99
2023-02-14T05:11:45.160Z,99.99
2023-02-14T05:12:45.149Z,99.99
2023-02-14T05:13:45.404Z,99.99
2023-02-14T05:14:45.128Z,99.99
2023-02-14T05:15:45.166Z,99.99
2023-02-14T05:16:45.174Z,99.99
2023-02-14T05:17:45.073Z,99.99
2023-02-14T05:18:45.062Z,99.99
2023-02-14T05:19:45.052Z,99.99
2023-02-14T05:20:45.352Z,99.99
2023-02-14T05:21:45.038Z,99.99
2023-02-14T05:22:45.028Z,99.99
2023-02-14T05:23:45.018Z,99.99
2023-02-14T05:24:45.000Z,99.99
2023-02-14T05:25:45.026Z,99.99
2023-02-14T05:26:45.013Z,99.99
2023-02-14T05:27:44.969Z,99.99
2023-02-14T05:28:44.949Z,99.99
2023-02-14T05:29:44.960Z,99.99
2023-02-14T05:30:44.983Z,99.99
2023-02-14T05:31:45.026Z,99.99
2023-02-14T05:32:44.966Z,99.99
2023-02-14T05:33:45.211Z,99.99
2023-02-14T05:34:44.916Z,99.99
2023-02-14T05:35:44.886Z,99.99
2023-02-14T05:36:44.896Z,99.99
2023-02-14T05:37:44.863Z,99.99
2023-02-14T05:38:44.917Z,99.99
2023-02-14T05:39:44.857Z,99.99
2023-02-14T05:40:44.847Z,99.99
2023-02-14T05:41:44.849Z,99.99
2023-02-14T05:42:44.830Z,99.99
2023-02-14T05:43:44.818Z,99.99
2023-02-14T05:44:44.843Z,99.99
2023-02-14T05:45:45.149Z,99.99
2023-02-14T05:46:44.781Z,99.99
2023-02-14T05:47:44.765Z,99.99
2023-02-14T05:48:44.758Z,99.99
2023-02-14T05:49:44.754Z,99.99
2023-02-14T05:50:44.765Z,99.99
2023-02-14T05:51:44.731Z,99.99
2023-02-14T05:52:44.728Z,99.99
2023-02-14T05:53:44.707Z,99.99
2023-02-14T05:54:44.711Z,99.99
2023-02-14T05:55:44.703Z,99.99
2023-02-14T05:56:44.711Z,99.99
2023-02-14T05:57:44.971Z,99.99
2023-02-14T05:58:44.692Z,99.99
2023-02-14T05:59:44.664Z,99.99
2023-02-14T06:00:44.670Z,99.99
2023-02-14T06:01:44.686Z,99.99
2023-02-14T06:02:44.654Z,99.99
2023-02-14T06:03:44.608Z,99.99
2023-02-14T06:04:44.960Z,99.99
2023-02-14T06:05:44.590Z,99.99
2023-02-14T06:06:44.646Z,99.99
2023-02-14T06:07:44.585Z,99.99
2023-02-14T06:08:44.620Z,99.99
2023-02-14T06:09:44.556Z,99.99
2023-02-14T06:10:44.618Z,99.99
2023-02-14T06:11:44.816Z,99.99
2023-02-14T06:12:44.529Z,99.99
2023-02-14T06:13:44.532Z,99.99
2023-02-14T06:14:44.552Z,99.99
2023-02-14T06:15:44.513Z,99.99
2023-02-14T06:16:44.554Z,99.99
2023-02-14T06:17:44.487Z,99.99
2023-02-14T06:18:44.774Z,99.99
2023-02-14T06:19:44.462Z,99.99
2023-02-14T06:20:44.488Z,99.99
2023-02-14T06:21:44.435Z,99.99
2023-02-14T06:22:44.429Z,99.99
2023-02-14T06:23:44.419Z,99.99
2023-02-14T06:24:44.437Z,99.99
2023-02-14T06:25:44.689Z,99.99
2023-02-14T06:26:44.442Z,99.99
2023-02-14T06:27:44.390Z,99.99
2023-02-14T06:28:44.417Z,99.99
2023-02-14T06:29:44.347Z,99.99
2023-02-14T06:30:44.618Z,99.99
2023-02-14T06:31:44.467Z,99.99
2023-02-14T06:32:44.647Z,99.99
2023-02-14T06:33:44.308Z,99.99
2023-02-14T06:34:44.326Z,99.99
2023-02-14T06:35:44.308Z,99.99
2023-02-14T06:36:44.292Z,99.99
2023-02-14T06:37:44.276Z,99.99
2023-02-14T06:38:44.374Z,99.99
2023-02-14T06:39:44.557Z,99.99
2023-02-14T06:40:44.262Z,99.99
2023-02-14T06:41:44.248Z,99.99
2023-02-14T06:42:44.227Z,99.99
2023-02-14T06:43:44.218Z,99.99
2023-02-14T06:44:44.311Z,99.99
2023-02-14T06:45:44.320Z,99.99
2023-02-14T06:46:44.188Z,99.99
2023-02-14T06:47:44.176Z,99.99
2023-02-14T06:48:44.195Z,99.99
2023-02-14T06:49:44.175Z,99.99
2023-02-14T06:50:44.198Z,99.99
2023-02-14T06:51:44.134Z,99.99
2023-02-14T06:52:44.425Z,99.99
2023-02-14T06:53:44.136Z,99.99
2023-02-14T06:54:44.109Z,99.99
2023-02-14T06:55:44.154Z,99.99
2023-02-14T06:56:44.137Z,99.99
2023-02-14T06:57:44.174Z,99.99
2023-02-14T06:58:44.084Z,99.99
2023-02-14T06:59:44.343Z,99.99
2023-02-14T07:00:44.042Z,99.99
2023-02-14T07:01:44.083Z,99.99
2023-02-14T07:02:44.161Z,99.99
2023-02-14T07:03:44.030Z,99.99
2023-02-14T07:04:44.008Z,99.99
2023-02-14T07:05:43.998Z,99.99
2023-02-14T07:06:44.264Z,99.99
2023-02-14T07:07:43.976Z,99.99
2023-02-14T07:08:44.020Z,99.99
2023-02-14T07:09:43.972Z,99.99
2023-02-14T07:10:43.948Z,99.99
2023-02-14T07:11:43.938Z,99.99
2023-02-14T07:12:43.942Z,99.99
2023-02-14T07:13:44.201Z,99.99
2023-02-14T07:14:43.965Z,99.99
2023-02-14T07:15:43.946Z,99.99
2023-02-14T07:16:43.879Z,99.99
2023-02-14T07:17:43.895Z,99.99
2023-02-14T07:18:43.869Z,99.99
2023-02-14T07:19:43.883Z,99.99
2023-02-14T07:20:43.905Z,99.99
2023-02-14T07:21:43.885Z,99.99
2023-02-14T07:22:43.836Z,99.99
2023-02-14T07:23:43.816Z,99.99
2023-02-14T07:24:43.895Z,99.99
2023-02-14T07:25:43.827Z,99.99
2023-02-14T07:26:44.115Z,99.99
2023-02-14T07:27:43.782Z,99.99
2023-02-14T07:28:45.195Z,99.99
2023-02-14T07:29:43.789Z,99.99
2023-02-14T07:30:43.788Z,99.99
2023-02-14T07:31:43.859Z,99.99
2023-02-14T07:32:43.778Z,99.99
2023-02-14T07:33:43.739Z,99.99
2023-02-14T07:34:43.712Z,99.99
2023-02-14T07:35:43.689Z,99.99
2023-02-14T07:36:43.709Z,99.99
2023-02-14T07:37:43.678Z,99.99
2023-02-14T07:38:43.981Z,99.99
2023-02-14T07:39:43.656Z,99.99
2023-02-14T07:40:43.654Z,99.99
2023-02-14T07:41:43.630Z,98.85
2023-02-14T07:42:43.675Z,96.88
2023-02-14T07:43:43.627Z,95.64
2023-02-14T07:44:43.634Z,94.97
2023-02-14T07:45:43.598Z,94.20
2023-02-14T07:46:43.653Z,93.64
2023-02-14T07:47:43.572Z,92.61
2023-02-14T07:48:43.576Z,92.15
2023-02-14T07:49:43.546Z,90.87
2023-02-14T07:50:43.897Z,89.42
2023-02-14T07:51:43.535Z,88.55
2023-02-14T07:52:43.534Z,87.66
2023-02-14T07:53:43.543Z,87.76
2023-02-14T07:54:43.556Z,88.70
2023-02-14T07:55:43.498Z,88.59
2023-02-14T07:56:43.519Z,88.39
2023-02-14T07:57:43.775Z,88.04
2023-02-14T07:58:43.465Z,87.83
2023-02-14T07:59:43.442Z,87.73
2023-02-14T08:00:43.446Z,86.96
2023-02-14T08:01:43.480Z,86.30
2023-02-14T08:02:43.467Z,85.13
2023-02-14T08:03:43.420Z,83.95
2023-02-14T08:04:43.746Z,82.57
2023-02-14T08:05:43.384Z,82.47
2023-02-14T08:06:43.402Z,81.81
2023-02-14T08:07:43.383Z,81.26
2023-02-14T08:08:43.751Z,80.30
2023-02-14T08:09:43.337Z,79.23
2023-02-14T08:10:43.341Z,78.61
2023-02-14T08:11:43.613Z,78.20
2023-02-14T08:12:43.334Z,78.06
2023-02-14T08:13:43.299Z,77.31
2023-02-14T08:14:43.349Z,77.10
2023-02-14T08:15:43.322Z,76.90
2023-02-14T08:16:43.273Z,77.14
2023-02-14T08:17:43.256Z,77.75
2023-02-14T08:18:43.550Z,77.31
2023-02-14T08:19:43.229Z,77.00
2023-02-14T08:20:43.288Z,77.00
2023-02-14T08:21:43.213Z,76.86
2023-02-14T08:22:43.209Z,76.51
2023-02-14T08:23:43.189Z,76.28
2023-02-14T08:24:43.176Z,75.04
2023-02-14T08:25:43.468Z,73.78
2023-02-14T08:26:43.251Z,72.92
2023-02-14T08:27:43.169Z,73.23
2023-02-14T08:28:43.167Z,72.27
2023-02-14T08:29:43.144Z,72.34
2023-02-14T08:30:43.146Z,71.32
2023-02-14T08:31:43.164Z,71.11
2023-02-14T08:32:43.203Z,70.81
2023-02-14T08:33:43.128Z,71.42
2023-02-14T08:34:43.115Z,70.87
2023-02-14T08:35:43.101Z,70.47
2023-02-14T08:36:43.063Z,69.95
2023-02-14T08:37:43.069Z,70.23
2023-02-14T08:38:43.075Z,69.71
2023-02-14T08:39:43.043Z,69.00
2023-02-14T08:40:43.015Z,68.97
2023-02-14T08:41:43.013Z,69.17
2023-02-14T08:42:43.024Z,68.93
2023-02-14T08:43:42.992Z,68.29
2023-02-14T08:44:43.306Z,68.19
2023-02-14T08:45:42.992Z,67.88
2023-02-14T08:46:43.148Z,67.68
2023-02-14T08:47:42.949Z,67.57
2023-02-14T08:48:43.188Z,67.54
2023-02-14T08:49:42.922Z,66.93
2023-02-14T08:50:43.009Z,67.13
2023-02-14T08:51:42.924Z,66.59
2023-02-14T08:52:42.891Z,65.95
2023-02-14T08:53:42.962Z,65.00
2023-02-14T08:54:42.877Z,65.41
2023-02-14T08:55:42.890Z,64.87
2023-02-14T08:56:43.285Z,64.15
2023-02-14T08:57:42.886Z,63.85
2023-02-14T08:58:42.846Z,64.25
2023-02-14T08:59:42.826Z,64.73
2023-02-14T09:00:42.908Z,62.87
2023-02-14T09:01:42.808Z,62.33
2023-02-14T09:02:42.843Z,62.43
2023-02-14T09:03:42.875Z,62.77
2023-02-14T09:04:42.782Z,62.43
2023-02-14T09:05:42.775Z,62.74
2023-02-14T09:06:42.752Z,62.43
2023-02-14T09:07:42.767Z,62.43
2023-02-14T09:08:43.137Z,62.94
2023-02-14T09:09:42.753Z,62.20
2023-02-14T09:10:42.714Z,61.87
2023-02-14T09:11:42.735Z,61.63
2023-02-14T09:12:42.679Z,59.98
2023-02-14T09:13:42.712Z,60.46
2023-02-14T09:14:42.713Z,59.62
2023-02-14T09:15:42.957Z,58.06
2023-02-14T09:16:42.779Z,58.85
2023-02-14T09:17:42.627Z,57.64
2023-02-14T09:18:42.641Z,57.30
2023-02-14T09:19:42.668Z,57.10
2023-02-14T09:20:42.667Z,57.48
2023-02-14T09:21:42.598Z,56.54
2023-02-14T09:22:42.921Z,55.02
2023-02-14T09:23:42.571Z,55.02
2023-02-14T09:24:42.559Z,55.12
2023-02-14T09:25:43.152Z,55.52
2023-02-14T09:26:42.571Z,54.61
2023-02-14T09:27:42.529Z,55.22
2023-02-14T09:28:42.526Z,55.68
2023-02-14T09:29:42.810Z,53.93
2023-02-14T09:30:42.509Z,53.40
2023-02-14T09:31:42.603Z,52.36
2023-02-14T09:32:42.511Z,51.55
2023-02-14T09:33:42.471Z,51.35
2023-02-14T09:34:42.468Z,50.32
2023-02-14T09:35:42.471Z,50.62
2023-02-14T09:36:42.787Z,50.72
2023-02-14T09:37:42.431Z,49.81
2023-02-14T09:38:42.482Z,50.09
2023-02-14T09:39:42.398Z,50.49
2023-02-14T09:40:42.384Z,49.36
2023-02-14T09:41:42.492Z,49.08
2023-02-14T09:42:42.415Z,49.28
2023-02-14T09:43:42.655Z,49.81
2023-02-14T09:44:42.453Z,49.69
2023-02-14T09:45:42.488Z,49.58
2023-02-14T09:46:42.356Z,49.56
2023-02-14T09:47:42.298Z,48.65
2023-02-14T09:48:42.359Z,48.65
2023-02-14T09:49:42.496Z,48.22
2023-02-14T09:50:42.668Z,48.33
2023-02-14T09:51:42.259Z,47.90
2023-02-14T09:52:42.249Z,48.41
2023-02-14T09:53:42.263Z,47.88
2023-02-14T09:54:42.236Z,47.78
2023-02-14T09:55:42.254Z,47.58
2023-02-14T09:56:50.631Z,46.97
2023-02-14T09:57:42.233Z,47.50
2023-02-14T09:58:42.180Z,47.80
2023-02-14T09:59:42.220Z,48.43
2023-02-14T10:00:42.245Z,48.50
2023-02-14T10:01:42.157Z,48.10
2023-02-14T10:02:42.194Z,48.30
2023-02-14T10:03:42.145Z,48.00
2023-02-14T10:04:42.133Z,48.08
2023-02-14T10:05:42.142Z,47.86
2023-02-14T10:06:42.100Z,46.25
2023-02-14T10:07:42.099Z,46.37
2023-02-14T10:08:42.121Z,46.77
2023-02-14T10:09:42.413Z,46.77
2023-02-14T10:10:42.072Z,45.94
2023-02-14T10:11:42.063Z,46.14
2023-02-14T10:12:42.047Z,46.37
2023-02-14T10:13:42.056Z,48.38
2023-02-14T10:14:42.047Z,45.86
2023-02-14T10:15:42.008Z,46.69
2023-02-14T10:16:42.307Z,46.06
2023-02-14T10:17:42.014Z,45.54
2023-02-14T10:18:41.993Z,45.82
2023-02-14T10:19:42.002Z,45.14
2023-02-14T10:20:42.032Z,45.74
2023-02-14T10:21:41.974Z,44.93
2023-02-14T10:22:41.940Z,45.44
2023-02-14T10:23:42.217Z,45.32
2023-02-14T10:24:41.950Z,45.21
2023-02-14T10:25:41.919Z,44.51
2023-02-14T10:26:41.984Z,44.59
2023-02-14T10:27:41.885Z,44.29
2023-02-14T10:28:41.882Z,44.11
2023-02-14T10:29:41.889Z,44.98
2023-02-14T10:30:42.324Z,46.31
2023-02-14T10:31:42.063Z,45.46
2023-02-14T10:32:41.861Z,45.24
2023-02-14T10:33:41.832Z,45.52
2023-02-14T10:34:41.835Z,44.49
2023-02-14T10:35:41.808Z,44.09
2023-02-14T10:36:41.790Z,44.89
2023-02-14T10:37:42.056Z,45.19
2023-02-14T10:38:41.836Z,44.37
2023-02-14T10:39:41.765Z,44.89
2023-02-14T10:40:41.778Z,45.90
2023-02-14T10:41:41.760Z,44.37
2023-02-14T10:42:41.723Z,42.66
2023-02-14T10:43:41.736Z,43.14
2023-02-14T10:44:42.079Z,42.94
2023-02-14T10:45:41.872Z,42.74
2023-02-14T10:46:41.712Z,43.64
2023-02-14T10:47:41.680Z,42.94
2023-02-14T10:48:41.663Z,43.14
2023-02-14T10:49:41.677Z,43.22
2023-02-14T10:50:41.684Z,42.92
2023-02-14T10:51:41.644Z,42.69
2023-02-14T10:52:41.623Z,42.82
2023-02-14T10:53:41.635Z,43.64
2023-02-14T10:54:41.617Z,43.46
2023-02-14T10:55:41.593Z,44.43
2023-02-14T10:56:41.898Z,46.33
2023-02-14T10:57:42.213Z,47.59
2023-02-14T10:58:41.590Z,47.44
2023-02-14T10:59:41.561Z,46.41
2023-02-14T11:00:41.561Z,46.41
2023-02-14T11:01:41.638Z,47.22
2023-02-14T11:02:41.654Z,45.68
2023-02-14T11:03:43.924Z,46.29
2023-02-14T11:04:41.524Z,45.97
2023-02-14T11:05:41.529Z,45.03
2023-02-14T11:06:41.481Z,44.71
2023-02-14T11:07:41.517Z,45.01
2023-02-14T11:08:41.772Z,43.99
2023-02-14T11:09:41.450Z,43.99
2023-02-14T11:10:41.458Z,44.33
2023-02-14T11:11:41.437Z,45.26
2023-02-14T11:12:41.419Z,45.66
2023-02-14T11:13:41.441Z,45.18
2023-02-14T11:14:41.442Z,46.39
2023-02-14T11:15:41.403Z,46.06
2023-02-14T11:16:41.374Z,46.67
2023-02-14T11:17:41.389Z,45.12
2023-02-14T11:18:41.358Z,45.03
2023-02-14T11:19:41.352Z,45.64
2023-02-14T11:20:41.379Z,44.69
2023-02-14T11:21:41.663Z,44.67
2023-02-14T11:22:41.345Z,44.85
2023-02-14T11:23:41.347Z,43.54
2023-02-14T11:24:41.295Z,42.84
2023-02-14T11:25:41.299Z,43.26
2023-02-14T11:26:41.329Z,43.44
2023-02-14T11:27:41.284Z,43.74
2023-02-14T11:28:42.124Z,43.76
2023-02-14T11:29:41.309Z,44.87
2023-02-14T11:30:41.453Z,44.07
2023-02-14T11:31:41.344Z,43.64
2023-02-14T11:32:41.284Z,42.52
2023-02-14T11:33:41.201Z,41.69
2023-02-14T11:34:41.203Z,42.18
2023-02-14T11:35:41.475Z,41.43
2023-02-14T11:36:41.155Z,41.15
2023-02-14T11:37:41.147Z,42.07
2023-02-14T11:38:41.209Z,42.40
2023-02-14T11:39:41.174Z,41.79
2023-02-14T11:40:41.124Z,42.19
2023-02-14T11:41:41.120Z,42.52
2023-02-14T11:42:41.413Z,43.40
2023-02-14T11:43:41.115Z,41.35
2023-02-14T11:44:41.172Z,40.53
2023-02-14T11:45:41.084Z,40.75
2023-02-14T11:46:52.245Z,40.63
2023-02-14T11:47:41.062Z,40.73
2023-02-14T11:48:41.029Z,40.43
2023-02-14T11:49:41.317Z,40.41
2023-02-14T11:50:41.094Z,40.09
2023-02-14T11:51:41.028Z,39.37
2023-02-14T11:52:41.005Z,39.87
2023-02-14T11:53:40.998Z,38.55
2023-02-14T11:54:40.990Z,39.23
2023-02-14T11:55:40.997Z,38.23
2023-02-14T11:56:41.012Z,37.92
2023-02-14T11:57:40.995Z,37.51
2023-02-14T11:58:40.951Z,37.51
2023-02-14T11:59:40.927Z,37.40
2023-02-14T12:00:40.933Z,37.13
2023-02-14T12:01:40.920Z,38.65
2023-02-14T12:02:41.255Z,39.51
2023-02-14T12:03:40.905Z,41.23
2023-02-14T12:04:46.240Z,39.93
2023-02-14T12:05:40.889Z,39.54
2023-02-14T12:06:40.863Z,40.47
2023-02-14T12:07:40.887Z,40.67
2023-02-14T12:08:40.877Z,40.97
2023-02-14T12:09:40.838Z,40.45
2023-02-14T12:10:40.881Z,39.69
2023-02-14T12:11:40.798Z,39.17
2023-02-14T12:12:40.826Z,38.63
2023-02-14T12:13:40.786Z,37.61
2023-02-14T12:14:40.841Z,36.69
2023-02-14T12:15:41.089Z,37.01
2023-02-14T12:16:40.840Z,38.13
2023-02-14T12:17:40.751Z,37.10
2023-02-14T12:18:40.846Z,37.40
2023-02-14T12:19:40.817Z,37.49
2023-02-14T12:20:40.809Z,36.81
2023-02-14T12:21:40.707Z,38.05
2023-02-14T12:22:40.689Z,37.95
2023-02-14T12:23:40.719Z,38.07
2023-02-14T12:24:40.655Z,38.68
2023-02-14T12:25:40.652Z,39.11
2023-02-14T12:26:40.692Z,39.83
2023-02-14T12:27:40.912Z,39.93
2023-02-14T12:28:40.632Z,39.31
2023-02-14T12:29:40.768Z,38.68
2023-02-14T12:30:40.605Z,37.85
2023-02-14T12:31:40.855Z,37.23
2023-02-14T12:32:40.601Z,37.01
2023-02-14T12:33:40.569Z,36.79
2023-02-14T12:34:40.546Z,36.41
2023-02-14T12:35:40.544Z,36.51
2023-02-14T12:36:40.541Z,36.69
2023-02-14T12:37:40.549Z,36.21
2023-02-14T12:38:40.595Z,38.10
2023-02-14T12:39:40.814Z,39.14
2023-02-14T12:40:40.500Z,39.76
2023-02-14T12:41:40.489Z,40.81
2023-02-14T12:42:40.465Z,41.61
2023-02-14T12:43:40.454Z,40.79
2023-02-14T12:44:40.691Z,40.57
2023-02-14T12:45:40.494Z,39.23
2023-02-14T12:46:40.698Z,38.79
2023-02-14T12:47:40.480Z,38.57
2023-02-14T12:48:40.425Z,38.23
2023-02-14T12:49:40.411Z,37.41
2023-02-14T12:50:40.465Z,36.99
2023-02-14T12:51:40.391Z,36.28
2023-02-14T12:52:40.357Z,36.28
2023-02-14T12:53:40.739Z,35.78